createdAt,value
2023-04-19T00:02:25.681Z,79.29
2023-04-19T00:04:57.896Z,79.19
2023-04-19T00:07:29.800Z,78.96
2023-04-19T00:10:01.575Z,79.31
2023-04-19T00:12:33.328Z,79.16
2023-04-19T00:15:06.323Z,79.67
2023-04-19T00:17:38.204Z,79.04
2023-04-19T00:20:11.606Z,79.51
2023-04-19T00:22:43.329Z,79.13
2023-04-19T00:25:15.130Z,79.14
2023-04-19T00:27:47.143Z,78.95
2023-04-19T00:30:18.866Z,79.11
2023-04-19T00:32:50.716Z,78.90
2023-04-19T00:35:22.531Z,78.80
2023-04-19T00:37:54.343Z,78.99
2023-04-19T00:40:26.156Z,79.17
2023-04-19T00:42:58.015Z,79.28
2023-04-19T00:45:29.785Z,79.04
2023-04-19T00:48:02.287Z,78.84
2023-04-19T00:50:36.073Z,78.99
2023-04-19T00:53:08.098Z,78.96
2023-04-19T00:55:39.919Z,79.42
2023-04-19T00:58:11.705Z,79.27
2023-04-19T01:00:44.332Z,79.14
2023-04-19T01:03:17.731Z,79.41
2023-04-19T01:05:50.985Z,79.92
2023-04-19T01:08:23.329Z,79.59
2023-04-19T01:10:58.859Z,79.72
2023-04-19T01:13:30.614Z,79.92
2023-04-19T01:16:02.446Z,80.05
2023-04-19T01:18:37.545Z,79.84
2023-04-19T01:21:10.101Z,80.41
2023-04-19T01:23:42.053Z,80.24
2023-04-19T01:26:13.996Z,80.37
2023-04-19T01:28:45.792Z,80.15
2023-04-19T01:31:17.522Z,80.36
2023-04-19T01:33:49.223Z,79.76
2023-04-19T01:36:20.928Z,80.03
2023-04-19T01:38:52.686Z,79.87
2023-04-19T01:41:27.134Z,79.91
2023-04-19T01:43:58.900Z,80.13
2023-04-19T01:46:30.686Z,80.12
2023-04-19T01:49:02.521Z,79.68
2023-04-19T01:51:34.303Z,80.46
2023-04-19T01:54:06.360Z,80.27
2023-04-19T01:56:38.086Z,80.31
2023-04-19T01:59:09.766Z,80.15
2023-04-19T02:01:41.532Z,80.01
2023-04-19T02:04:13.513Z,80.57
2023-04-19T02:06:45.460Z,80.55
2023-04-19T02:09:17.238Z,80.79
2023-04-19T02:11:51.081Z,80.97
2023-04-19T02:14:22.749Z,81.43
2023-04-19T02:16:54.683Z,82.20
2023-04-19T02:19:26.520Z,82.41
2023-04-19T02:21:58.313Z,83.36
2023-04-19T02:24:30.086Z,82.89
2023-04-19T02:27:04.991Z,83.19
2023-04-19T02:29:39.509Z,83.60
2023-04-19T02:32:14.693Z,84.16
2023-04-19T02:34:46.407Z,84.66
2023-04-19T02:37:18.529Z,85.30
2023-04-19T02:39:51.276Z,85.73
2023-04-19T02:42:22.988Z,85.98
2023-04-19T02:44:54.776Z,86.35
2023-04-19T02:47:29.307Z,85.79
2023-04-19T02:50:01.645Z,85.52
2023-04-19T02:52:35.452Z,86.16
2023-04-19T02:55:07.772Z,86.90
2023-04-19T02:57:39.800Z,86.51
2023-04-19T03:00:14.182Z,86.96
2023-04-19T03:02:54.179Z,86.84
2023-04-19T03:05:26.076Z,87.69
2023-04-19T03:07:57.774Z,87.55
2023-04-19T03:10:29.729Z,87.46
2023-04-19T03:13:01.464Z,88.03
2023-04-19T03:15:34.478Z,87.27
2023-04-19T03:18:06.415Z,87.09
2023-04-19T03:20:39.436Z,87.12
2023-04-19T03:23:11.201Z,87.14
2023-04-19T03:25:43.609Z,87.44
2023-04-19T03:28:31.107Z,87.59
2023-04-19T03:31:35.407Z,87.97
2023-04-19T03:34:08.425Z,87.36
2023-04-19T03:36:46.477Z,87.47
2023-04-19T03:39:18.317Z,87.67
2023-04-19T03:41:52.732Z,87.57
2023-04-19T03:44:32.263Z,87.46
2023-04-19T03:47:04.017Z,87.74
2023-04-19T03:49:41.458Z,87.54
2023-04-19T03:52:13.165Z,87.33
2023-04-19T03:54:45.226Z,87.51
2023-04-19T03:57:29.756Z,87.68
2023-04-19T04:00:08.277Z,86.85
2023-04-19T04:02:45.787Z,86.39
2023-04-19T04:05:18.580Z,87.44
2023-04-19T04:07:50.583Z,86.80
2023-04-19T04:10:23.488Z,86.90
2023-04-19T04:12:56.047Z,86.15
2023-04-19T04:15:33.866Z,86.14
2023-04-19T04:18:08.413Z,85.96
2023-04-19T04:20:41.432Z,85.90
2023-04-19T04:23:16.553Z,86.17
2023-04-19T04:26:02.574Z,85.71
2023-04-19T04:28:52.256Z,85.73
2023-04-19T04:31:24.494Z,85.53
2023-04-19T04:33:56.570Z,85.14
2023-04-19T04:36:29.830Z,84.48
2023-04-19T04:39:02.174Z,85.28
2023-04-19T04:41:36.069Z,85.32
2023-04-19T04:44:13.072Z,84.93
2023-04-19T04:46:46.733Z,84.62
2023-04-19T04:49:23.623Z,84.66
2023-04-19T04:51:55.955Z,84.52
2023-04-19T04:54:27.938Z,84.68
2023-04-19T04:57:02.988Z,83.83
2023-04-19T04:59:35.977Z,83.86
2023-04-19T05:02:08.726Z,84.10
2023-04-19T05:04:40.959Z,83.83
2023-04-19T05:07:12.741Z,83.89
2023-04-19T05:09:44.496Z,83.86
2023-04-19T05:12:19.143Z,83.85
2023-04-19T05:14:51.042Z,83.58
2023-04-19T05:17:23.015Z,83.99
2023-04-19T05:19:54.850Z,83.51
2023-04-19T05:22:27.501Z,83.51
2023-04-19T05:24:59.354Z,83.39
2023-04-19T05:27:31.677Z,83.25
2023-04-19T05:30:05.126Z,82.65
2023-04-19T05:32:37.456Z,82.78
2023-04-19T05:35:11.412Z,82.58
2023-04-19T05:37:43.429Z,81.99
2023-04-19T05:40:15.349Z,81.76
2023-04-19T05:42:47.027Z,80.56
2023-04-19T05:45:19.074Z,81.06
2023-04-19T05:47:50.976Z,80.43
2023-04-19T05:50:28.684Z,80.56
2023-04-19T05:53:20.652Z,80.11
2023-04-19T05:55:52.694Z,78.46
2023-04-19T05:58:24.518Z,78.14
2023-04-19T06:00:56.447Z,78.19
2023-04-19T06:03:31.212Z,77.58
2023-04-19T06:06:05.440Z,77.43
2023-04-19T06:08:37.311Z,76.99
2023-04-19T06:11:20.199Z,76.71
2023-04-19T06:13:56.532Z,76.12
2023-04-19T06:16:28.750Z,76.56
2023-04-19T06:19:01.074Z,76.80
2023-04-19T06:21:33.023Z,77.51
2023-04-19T06:24:06.946Z,77.52
2023-04-19T06:26:38.750Z,77.89
2023-04-19T06:29:10.614Z,77.94
2023-04-19T06:31:43.102Z,77.87
2023-04-19T06:34:15.244Z,78.46
2023-04-19T06:36:47.443Z,78.33
2023-04-19T06:39:19.215Z,78.19
2023-04-19T06:41:51.062Z,78.87
2023-04-19T06:44:22.776Z,77.95
2023-04-19T06:46:54.477Z,78.17
2023-04-19T06:49:26.350Z,78.11
2023-04-19T06:51:59.571Z,78.30
2023-04-19T06:54:31.338Z,78.41
2023-04-19T06:57:03.588Z,78.13
2023-04-19T06:59:38.723Z,78.32
2023-04-19T07:02:10.750Z,78.36
2023-04-19T07:04:42.703Z,78.68
2023-04-19T07:07:14.551Z,78.80
2023-04-19T07:09:46.599Z,78.11
2023-04-19T07:12:18.576Z,77.94
2023-04-19T07:14:56.275Z,78.06
2023-04-19T07:17:28.021Z,77.11
2023-04-19T07:19:59.726Z,77.52
2023-04-19T07:22:31.437Z,76.27
2023-04-19T07:25:03.761Z,76.42
2023-04-19T07:27:35.453Z,75.73
2023-04-19T07:30:07.779Z,76.31
2023-04-19T07:32:39.591Z,76.12
2023-04-19T07:35:11.356Z,76.17
2023-04-19T07:37:43.026Z,75.46
2023-04-19T07:40:17.259Z,75.24
2023-04-19T07:42:49.273Z,75.20
2023-04-19T07:45:20.962Z,74.75
2023-04-19T07:47:52.737Z,74.33
2023-04-19T07:50:27.718Z,74.38
2023-04-19T07:52:59.549Z,73.56
2023-04-19T07:55:31.401Z,72.41
2023-04-19T07:58:03.293Z,71.87
2023-04-19T08:00:36.785Z,70.32
2023-04-19T08:03:08.770Z,69.00
2023-04-19T08:05:40.907Z,68.19
2023-04-19T08:08:12.720Z,66.37
2023-04-19T08:10:44.472Z,64.21
2023-04-19T08:13:17.320Z,63.96
2023-04-19T08:18:24.369Z,61.22
2023-04-19T08:20:56.757Z,60.94
2023-04-19T08:23:34.950Z,61.09
2023-04-19T08:26:16.955Z,61.08
2023-04-19T08:28:49.863Z,60.18
2023-04-19T08:31:21.753Z,59.70
2023-04-19T08:33:53.481Z,58.58
2023-04-19T08:36:36.041Z,56.98
2023-04-19T08:39:15.085Z,56.72
2023-04-19T08:41:59.038Z,55.44
2023-04-19T08:44:56.227Z,53.35
2023-04-19T08:47:44.748Z,51.33
2023-04-19T08:50:32.440Z,49.78
2023-04-19T08:53:24.172Z,48.51
2023-04-19T08:58:54.790Z,45.80
2023-04-19T09:01:34.991Z,42.38
2023-04-19T09:06:43.671Z,41.72
2023-04-19T09:11:53.299Z,38.11
2023-04-19T09:14:27.104Z,37.48
2023-04-19T09:17:27.909Z,36.68
2023-04-19T09:19:59.980Z,35.50
2023-04-19T09:22:32.817Z,36.26
2023-04-19T09:27:41.069Z,35.88
2023-04-19T09:30:24.036Z,34.82
2023-04-19T09:33:02.352Z,35.85
2023-04-19T09:35:47.453Z,34.73
2023-04-19T09:38:19.011Z,32.94
2023-04-19T09:40:50.944Z,34.94
2023-04-19T09:43:49.733Z,34.76
2023-04-19T09:46:34.039Z,32.63
2023-04-19T09:49:27.785Z,31.25
2023-04-19T09:52:13.642Z,32.75
2023-04-19T09:54:46.182Z,30.87
2023-04-19T09:57:20.587Z,31.92
2023-04-19T09:59:52.348Z,32.42
2023-04-19T10:02:25.138Z,31.54
2023-04-19T10:05:16.337Z,31.65
2023-04-19T10:07:50.626Z,32.15
2023-04-19T10:10:33.028Z,32.46
2023-04-19T10:15:54.151Z,33.14
2023-04-19T10:18:32.348Z,33.28
2023-04-19T10:21:08.410Z,32.53
2023-04-19T10:23:40.537Z,32.86
2023-04-19T10:26:12.259Z,33.30
2023-04-19T10:28:43.963Z,32.78
2023-04-19T10:31:16.145Z,33.80
2023-04-19T10:33:48.298Z,33.35
2023-04-19T10:36:21.882Z,33.58
2023-04-19T10:38:55.449Z,34.24
2023-04-19T10:41:57.669Z,33.66
2023-04-19T10:44:29.413Z,33.94
2023-04-19T10:47:01.258Z,35.14
2023-04-19T10:49:45.421Z,36.26
2023-04-19T10:52:29.489Z,36.44
2023-04-19T10:55:04.535Z,36.77
2023-04-19T10:58:05.467Z,36.06
2023-04-19T11:00:38.508Z,36.77
2023-04-19T11:03:45.597Z,35.77
2023-04-19T11:06:20.184Z,35.59
2023-04-19T11:08:52.966Z,35.66
2023-04-19T11:11:27.831Z,34.74
2023-04-19T11:14:04.272Z,35.82
2023-04-19T11:16:45.585Z,36.06
2023-04-19T11:19:21.161Z,36.85
2023-04-19T11:21:52.918Z,38.47
2023-04-19T11:24:24.587Z,37.34
2023-04-19T11:26:57.682Z,38.32
2023-04-19T11:29:29.400Z,38.10
2023-04-19T11:32:01.091Z,37.93
2023-04-19T11:34:37.838Z,38.44
2023-04-19T11:37:11.631Z,38.61
2023-04-19T11:39:47.573Z,39.06
2023-04-19T11:42:20.636Z,38.69
2023-04-19T11:44:52.647Z,38.98
2023-04-19T11:47:24.754Z,39.46
2023-04-19T11:49:56.645Z,38.61
2023-04-19T11:52:28.370Z,38.22
2023-04-19T11:55:18.471Z,38.94
2023-04-19T11:57:50.346Z,38.94
2023-04-19T12:00:29.112Z,38.32
2023-04-19T12:03:01.917Z,38.72
2023-04-19T12:05:35.202Z,37.89
2023-04-19T12:08:11.022Z,38.42
2023-04-19T12:10:57.267Z,38.72
2023-04-19T12:13:32.716Z,38.17
2023-04-19T12:16:04.764Z,37.69
2023-04-19T12:19:17.422Z,37.85
2023-04-19T12:21:49.538Z,36.62
2023-04-19T12:24:21.312Z,36.41
2023-04-19T12:26:57.466Z,36.82
2023-04-19T12:29:29.725Z,36.34
2023-04-19T12:32:01.825Z,35.58
2023-04-19T12:34:33.742Z,37.08
2023-04-19T12:37:05.603Z,37.68
2023-04-19T12:39:37.379Z,38.25
2023-04-19T12:42:09.094Z,39.01
2023-04-19T12:44:40.862Z,39.81
2023-04-19T12:47:12.684Z,40.97
2023-04-19T12:49:44.420Z,41.13
2023-04-19T12:52:16.332Z,40.58
2023-04-19T12:54:48.088Z,39.83
2023-04-19T12:57:19.885Z,40.29
2023-04-19T12:59:51.584Z,39.33
2023-04-19T13:02:23.739Z,38.80
2023-04-19T13:04:55.865Z,38.10
2023-04-19T13:07:28.600Z,38.19
2023-04-19T13:10:00.448Z,38.68
2023-04-19T13:12:32.301Z,38.69
2023-04-19T13:15:05.074Z,38.39
2023-04-19T13:17:37.986Z,39.51
2023-04-19T13:20:12.304Z,40.18
2023-04-19T13:22:44.068Z,39.20
2023-04-19T13:25:15.953Z,38.83
2023-04-19T13:27:47.804Z,38.54
2023-04-19T13:30:19.712Z,38.29
2023-04-19T13:32:51.628Z,38.99
2023-04-19T13:35:26.511Z,38.44
2023-04-19T13:37:58.276Z,38.77
2023-04-19T13:40:30.065Z,38.69
2023-04-19T13:43:01.762Z,39.42
2023-04-19T13:45:33.563Z,38.75
2023-04-19T13:48:05.910Z,39.42
2023-04-19T13:50:37.730Z,39.74
2023-04-19T13:53:09.445Z,39.35
2023-04-19T13:55:41.384Z,40.10
2023-04-19T13:58:16.612Z,40.41
2023-04-19T14:00:48.573Z,40.35
2023-04-19T14:03:22.331Z,40.50
2023-04-19T14:05:54.166Z,40.80
2023-04-19T14:08:26.280Z,39.85
2023-04-19T14:10:58.170Z,40.50
2023-04-19T14:13:29.970Z,40.85
2023-04-19T14:16:01.711Z,39.65
2023-04-19T14:18:33.493Z,40.37
2023-04-19T14:21:05.303Z,39.53
2023-04-19T14:23:37.099Z,38.27
2023-04-19T14:26:08.863Z,38.50
2023-04-19T14:28:40.560Z,38.96
2023-04-19T14:31:12.300Z,38.74
2023-04-19T14:33:44.071Z,39.01
2023-04-19T14:36:15.944Z,37.88
2023-04-19T14:38:47.642Z,37.78
2023-04-19T14:41:19.386Z,37.65
2023-04-19T14:43:51.952Z,38.06
2023-04-19T14:46:23.947Z,38.66
2023-04-19T14:48:57.189Z,38.44
2023-04-19T14:51:29.859Z,38.50
2023-04-19T14:54:01.724Z,39.29
2023-04-19T14:56:33.421Z,38.62
2023-04-19T14:59:08.116Z,39.08
2023-04-19T15:01:39.804Z,39.25
2023-04-19T15:04:11.818Z,39.30
2023-04-19T15:06:44.057Z,38.96
2023-04-19T15:09:16.391Z,39.24
2023-04-19T15:11:48.316Z,38.99
2023-04-19T15:14:20.126Z,39.02
2023-04-19T15:16:51.874Z,38.67
2023-04-19T15:19:23.664Z,38.97
2023-04-19T15:21:55.468Z,39.38
2023-04-19T15:24:27.322Z,39.66
2023-04-19T15:26:59.114Z,39.64
2023-04-19T15:29:30.892Z,39.11
2023-04-19T15:32:03.044Z,39.61
2023-04-19T15:34:34.929Z,40.04
2023-04-19T15:37:08.209Z,40.96
2023-04-19T15:39:40.064Z,41.02
2023-04-19T15:42:12.103Z,41.41
2023-04-19T15:44:44.337Z,41.21
2023-04-19T15:47:16.292Z,41.02
2023-04-19T15:49:48.088Z,40.68
2023-04-19T15:52:20.381Z,40.18
2023-04-19T15:54:52.168Z,40.28
2023-04-19T15:57:23.981Z,39.77
2023-04-19T15:59:55.713Z,40.07
2023-04-19T16:02:27.795Z,40.82
2023-04-19T16:04:59.715Z,41.33
2023-04-19T16:07:31.761Z,41.77
2023-04-19T16:10:03.574Z,41.62
2023-04-19T16:12:35.436Z,42.01
2023-04-19T16:15:07.586Z,42.56
2023-04-19T16:17:39.317Z,42.94
2023-04-19T16:20:11.398Z,43.24
2023-04-19T16:22:46.059Z,42.99
2023-04-19T16:25:17.789Z,43.19
2023-04-19T16:27:49.680Z,43.54
2023-04-19T16:30:23.508Z,43.63
2023-04-19T16:32:56.457Z,43.71
2023-04-19T16:35:28.310Z,44.02
2023-04-19T16:38:04.339Z,44.06
2023-04-19T16:40:36.173Z,44.42
2023-04-19T16:43:08.024Z,44.65
2023-04-19T16:45:40.054Z,44.76
2023-04-19T16:48:12.560Z,45.13
2023-04-19T16:50:44.547Z,45.38
2023-04-19T16:53:16.290Z,45.62
2023-04-19T16:55:48.098Z,46.47
2023-04-19T16:58:19.925Z,47.69
2023-04-19T17:00:52.238Z,48.32
2023-04-19T17:03:24.265Z,48.37
2023-04-19T17:06:01.363Z,48.87
2023-04-19T17:08:33.336Z,49.75
2023-04-19T17:11:05.174Z,50.21
2023-04-19T17:13:37.748Z,50.78
2023-04-19T17:16:09.437Z,51.07
2023-04-19T17:18:41.332Z,51.79
2023-04-19T17:21:16.009Z,52.12
2023-04-19T17:23:47.596Z,52.16
2023-04-19T17:26:19.439Z,52.93
2023-04-19T17:28:51.232Z,53.49
2023-04-19T17:31:23.109Z,54.25
2023-04-19T17:33:57.932Z,55.17
2023-04-19T17:36:32.667Z,55.46
2023-04-19T17:39:06.584Z,56.46
2023-04-19T17:41:41.558Z,56.59
2023-04-19T17:44:13.387Z,57.11
2023-04-19T17:46:45.109Z,57.43
2023-04-19T17:49:19.128Z,58.01
2023-04-19T17:51:51.160Z,59.55
2023-04-19T17:54:23.025Z,58.95
2023-04-19T17:56:54.808Z,59.18
2023-04-19T17:59:26.554Z,59.44
2023-04-19T18:01:58.380Z,60.08
2023-04-19T18:04:31.123Z,59.78
2023-04-19T18:07:02.879Z,60.26
2023-04-19T18:09:34.908Z,61.50
2023-04-19T18:12:07.345Z,61.94
2023-04-19T18:14:39.010Z,62.24
2023-04-19T18:17:10.761Z,62.18
2023-04-19T18:19:42.410Z,62.18
2023-04-19T18:22:16.981Z,62.21
2023-04-19T18:24:51.166Z,62.62
2023-04-19T18:27:22.902Z,62.34
2023-04-19T18:29:55.720Z,63.17
2023-04-19T18:32:28.719Z,62.96
2023-04-19T18:35:00.503Z,62.57
2023-04-19T18:37:34.618Z,63.24
2023-04-19T18:40:07.328Z,63.17
2023-04-19T18:42:39.520Z,63.56
2023-04-19T18:45:11.534Z,64.16
2023-04-19T18:47:43.309Z,64.16
2023-04-19T18:50:19.195Z,64.27
2023-04-19T18:52:51.088Z,64.89
2023-04-19T18:55:22.899Z,64.63
2023-04-19T18:57:54.938Z,64.82
2023-04-19T19:00:30.799Z,65.15
2023-04-19T19:03:03.832Z,65.47
2023-04-19T19:05:35.987Z,65.61
2023-04-19T19:08:08.013Z,65.33
2023-04-19T19:11:07.178Z,66.39
2023-04-19T19:13:31.688Z,65.66
2023-04-19T19:16:05.521Z,66.11
2023-04-19T19:18:37.323Z,66.27
2023-04-19T19:21:09.442Z,66.67
2023-04-19T19:23:42.776Z,67.20
2023-04-19T19:26:14.931Z,67.17
2023-04-19T19:28:47.371Z,66.91
2023-04-19T19:31:21.445Z,66.85
2023-04-19T19:34:13.425Z,67.13
2023-04-19T19:36:45.631Z,67.51
2023-04-19T19:39:17.635Z,67.67
2023-04-19T19:42:05.153Z,67.89
2023-04-19T19:44:37.963Z,68.18
2023-04-19T19:47:10.951Z,67.88
2023-04-19T19:52:18.223Z,67.60
2023-04-19T19:54:50.009Z,67.97
2023-04-19T19:58:15.527Z,67.78
2023-04-19T20:02:56.703Z,67.34
2023-04-19T20:05:28.930Z,67.97
2023-04-19T20:08:10.085Z,68.41
2023-04-19T20:10:42.944Z,67.92
2023-04-19T20:13:14.788Z,67.95
2023-04-19T20:15:47.392Z,67.97
2023-04-19T20:18:19.209Z,67.63
2023-04-19T20:20:51.850Z,68.10
2023-04-19T20:23:23.776Z,68.34
2023-04-19T20:25:55.574Z,68.30
2023-04-19T20:28:27.468Z,68.41
2023-04-19T20:30:59.146Z,68.25
2023-04-19T20:33:30.941Z,68.51
2023-04-19T20:36:03.704Z,67.61
2023-04-19T20:38:35.421Z,67.60
2023-04-19T20:41:07.508Z,67.94
2023-04-19T20:43:39.328Z,68.03
2023-04-19T20:46:11.555Z,68.28
2023-04-19T20:48:43.416Z,68.10
2023-04-19T20:51:15.333Z,68.36
2023-04-19T20:53:47.000Z,68.28
2023-04-19T20:56:18.704Z,67.87
2023-04-19T20:58:50.628Z,68.03
2023-04-19T21:01:24.309Z,67.64
2023-04-19T21:03:56.367Z,67.67
2023-04-19T21:06:28.245Z,67.29
2023-04-19T21:09:00.202Z,67.55
2023-04-19T21:11:31.892Z,67.33
2023-04-19T21:14:03.649Z,67.37
2023-04-19T21:16:36.736Z,67.51
2023-04-19T21:19:08.488Z,67.90
2023-04-19T21:21:40.430Z,67.69
2023-04-19T21:24:12.245Z,67.32
2023-04-19T21:26:44.064Z,67.45
2023-04-19T21:29:16.077Z,67.38
2023-04-19T21:31:48.047Z,67.89
2023-04-19T21:34:19.852Z,67.89
2023-04-19T21:36:52.839Z,67.58
2023-04-19T21:39:24.775Z,67.46
2023-04-19T21:41:57.527Z,67.30
2023-04-19T21:44:29.238Z,67.50
2023-04-19T21:47:01.188Z,67.28
2023-04-19T21:49:33.561Z,67.31
2023-04-19T21:52:06.519Z,67.32
2023-04-19T21:54:38.396Z,67.51
2023-04-19T21:57:11.117Z,67.68
2023-04-19T21:59:42.855Z,67.78
2023-04-19T22:02:14.600Z,67.74
2023-04-19T22:04:46.419Z,67.93
2023-04-19T22:07:18.869Z,67.85
2023-04-19T22:09:50.663Z,67.97
2023-04-19T22:12:23.397Z,67.56
2023-04-19T22:14:55.319Z,67.86
2023-04-19T22:17:27.808Z,67.96
2023-04-19T22:19:59.971Z,68.01
2023-04-19T22:22:31.614Z,67.67
2023-04-19T22:25:03.452Z,67.20
2023-04-19T22:27:35.227Z,67.25
2023-04-19T22:30:07.723Z,67.27
2023-04-19T22:32:39.354Z,67.42
2023-04-19T22:35:11.190Z,67.12
2023-04-19T22:37:43.057Z,67.24
2023-04-19T22:40:14.812Z,66.92
2023-04-19T22:42:46.520Z,67.21
2023-04-19T22:45:18.407Z,67.21
2023-04-19T22:47:52.914Z,66.94
2023-04-19T22:50:24.768Z,67.30
2023-04-19T22:52:56.452Z,67.08
2023-04-19T22:55:28.133Z,66.97
2023-04-19T22:57:59.949Z,67.31
2023-04-19T23:00:32.026Z,67.59
2023-04-19T23:03:04.194Z,67.57
2023-04-19T23:05:36.248Z,67.44
2023-04-19T23:08:09.307Z,67.49
2023-04-19T23:10:42.513Z,67.69
2023-04-19T23:13:15.822Z,67.69
2023-04-19T23:15:50.415Z,68.14
2023-04-19T23:18:22.383Z,67.45
2023-04-19T23:20:57.427Z,67.81
2023-04-19T23:23:29.108Z,68.04
2023-04-19T23:26:00.854Z,67.78
2023-04-19T23:28:32.585Z,68.15
2023-04-19T23:31:04.515Z,68.44
2023-04-19T23:33:36.373Z,68.28
2023-04-19T23:36:08.349Z,68.50
2023-04-19T23:38:40.165Z,68.29
2023-04-19T23:41:14.789Z,67.81
2023-04-19T23:43:46.519Z,68.24
2023-04-19T23:46:18.223Z,68.31
2023-04-19T23:48:49.901Z,68.45
2023-04-19T23:51:21.593Z,68.54
2023-04-19T23:53:53.376Z,68.88
2023-04-19T23:56:25.072Z,68.88
2023-04-19T23:58:57.512Z,68.97
